Terminal Aerodrome Forecast
Issued by NWS Cleveland, OH

Home | Current Version | Previous Version | Text Only | Print | Product List | Glossary Off
Versions: 1 2 3 4 5 6 7 8 9 10 11 12 13 14 15 16 17 18 19 20

000
FTUS41 KCLE 301139
TAFYNG
TAF
KYNG 301139Z 3012/0112 18010KT P6SM -SHRA OVC050
      TEMPO 3013/3016 4SM -SHRA BR OVC015
     FM301600 16008KT P6SM VCSH OVC015
     FM302200 22010KT P6SM -SHRA BKN020
     FM010300 26012KT P6SM BKN025=

USA.gov is the U.S. government's official web portal to all federal, state and local government web resources and services.